To NAV CANADA Home Page Login to a new session Search on AWWS site Feedback and Comments Disclaimer Vers la page française équivalente Tips FAQ What's new on the site To the Forecasts and Observations / NOTAM section To "File a Flight Plan" website Publications and other links Update of the User's profile FIC Telephone Numbers My Weather Data Folder Route Weather Data Regional Weather Data Local Weather Data To the Forecasts and Observations / NOTAM section
Request Generated 05/25/2017 at 01:17:33 UTC . Weather information available at that time is displayed.

METAR/TAF

If you find any discrepancies between the coded METAR/TAF and the plain language METAR/TAF please use the coded METAR/TAF. LWIS bulletins are not decoded in plain language.

VANCOUVER INTL/BC    (show WxCam)

METAR CYVR 250100Z 29009KT 30SM FEW040 FEW200 15/09 A2994 RMK CU1CI1 CU TR SLP139=
METAR
LOCATION
CYVR - VANCOUVER INTL/BC
DATE - TIME
25 MAY 2017 - 0100 UTC
WIND
290 TRUE @ 9  KNOTS
VISIBILITY
30 STAT.  MILES
RUNWAY VISUAL RANGE
WEATHER
CLOUDINESS
FEW CLOUDS (1/8 - 2/8) 4000  FT
FEW CLOUDS (1/8 - 2/8) 20000  FT
TEMP / DEWPOINT
15 C / 9 C
ALTIMETER
29.94 IN HG
RECENT WEATHER
WIND SHEAR

METAR CYVR 250000Z 30010KT 30SM FEW045 SCT220 15/08 A2994 RMK CU1CI2 SLP141=
METAR
LOCATION
CYVR - VANCOUVER INTL/BC
DATE - TIME
25 MAY 2017 - 0000 UTC
WIND
300 TRUE @ 10  KNOTS
VISIBILITY
30 STAT.  MILES
RUNWAY VISUAL RANGE
WEATHER
CLOUDINESS
FEW CLOUDS (1/8 - 2/8) 4500  FT
SCATTERED CLOUDS (3/8 - 4/8) 22000  FT
TEMP / DEWPOINT
15 C / 8 C
ALTIMETER
29.94 IN HG
RECENT WEATHER
WIND SHEAR

METAR CYVR 242300Z 26010KT 30SM FEW045 FEW055 FEW180 SCT240 15/08 A2994 RMK CU1SC1AC1CS2 SC TR SLP140=
METAR
LOCATION
CYVR - VANCOUVER INTL/BC
DATE - TIME
24 MAY 2017 - 2300 UTC
WIND
260 TRUE @ 10  KNOTS
VISIBILITY
30 STAT.  MILES
RUNWAY VISUAL RANGE
WEATHER
CLOUDINESS
FEW CLOUDS (1/8 - 2/8) 4500  FT
FEW CLOUDS (1/8 - 2/8) 5500  FT
FEW CLOUDS (1/8 - 2/8) 18000  FT
SCATTERED CLOUDS (3/8 - 4/8) 24000  FT
TEMP / DEWPOINT
15 C / 8 C
ALTIMETER
29.94 IN HG
RECENT WEATHER
WIND SHEAR

TAF CYVR 242338Z 2500/2606 26010KT P6SM FEW040 BECMG 2503/2505 VRB03KT BECMG 2506/2508 08005KT FM251200 08007KT P6SM BKN120 BECMG 2516/2518 28010KT FM252100 28010KT P6SM FEW050 FEW100 RMK NXT FCST BY 250300Z=
TAF
LOCATION

CYVR - VANCOUVER INTL/BC
VALIDITY [UTC]
24 MAY - 2338 to
26 MAY - 0600
 
TIMES
[UTC]
WIND
[DEGREES TRUE]
VISIBILITY
[STAT. MILES]
WEATHER
CLOUDINESS
[FEET AGL]
 
25 MAY - 0000 to
25 MAY - 1200
260 @ 10 KNOTS
6+
NIL
4000 FEW
BECOMING
25 MAY - 0300 to
25 MAY - 0500
VARIABLE @ 3 KNOTS
 
 
 
BECOMING
25 MAY - 0600 to
25 MAY - 0800
80 @ 5 KNOTS
 
 
 
 
25 MAY - 1200 to
25 MAY - 2100
80 @ 7 KNOTS
6+
NIL
12000 BROKEN
BECOMING
25 MAY - 1600 to
25 MAY - 1800
280 @ 10 KNOTS
 
 
 
 
25 MAY - 2100 to
26 MAY - 0600
280 @ 10 KNOTS
6+
NIL
5000 FEW
REMARKS
THE NEXT FORECAST WILL BE ISSUED BY 0300 UTC ON DAY 25


Your time UTC time
Weather data provided by Environment Canada and NAV CANADA